Terminal Aerodrome Forecast
Issued by NWS

Current Version | Previous Version | Text Only | Print | Product List | Glossary On
Versions: 1 2 3 4 5 6 7 8 9 10 11 12 13 14 15 16 17 18 19 20 21
526 FTUS41 KILN 111435 AAA TAFLUK TAF AMD KLUK 111435Z 1115/1212 29004KT P6SM SKC FM111700 30004KT P6SM SCT035 FM112300 VRB03KT P6SM BKN120 FM121100 VRB03KT P6SM -SHSN OVC040=

USA.gov is the U.S. government's official web portal to all federal, state and local government web resources and services.